createdAt,value
2023-10-17T00:01:54.347Z,97111.31
2023-10-17T00:07:00.075Z,97101.66
2023-10-17T00:12:11.396Z,97097.66
2023-10-17T00:17:17.757Z,97070.78
2023-10-17T00:22:25.561Z,97055.19
2023-10-17T00:27:28.543Z,97039.78
2023-10-17T00:32:33.127Z,97016.16
2023-10-17T00:37:39.346Z,96997.09
2023-10-17T00:42:43.210Z,96985.75
2023-10-17T00:47:46.854Z,96965.47
2023-10-17T00:52:50.941Z,96946.81
2023-10-17T00:57:54.641Z,96941.84
2023-10-17T01:03:07.363Z,96922.16
2023-10-17T01:08:10.491Z,96916.59
2023-10-17T01:13:13.523Z,96899.31
2023-10-17T01:18:17.727Z,96905.91
2023-10-17T01:23:22.085Z,96892.56
2023-10-17T01:28:25.153Z,96904.63
2023-10-17T01:33:31.120Z,96871.91
2023-10-17T01:38:34.336Z,96860.13
2023-10-17T01:43:41.726Z,96840.97
2023-10-17T01:48:47.595Z,96847.09
2023-10-17T01:53:52.435Z,96829.22
2023-10-17T01:59:10.749Z,96836.38
2023-10-17T02:04:20.089Z,96816.78
2023-10-17T02:09:39.763Z,96798.91
2023-10-17T02:14:43.041Z,96781.50
2023-10-17T02:19:46.079Z,96760.41
2023-10-17T02:24:48.977Z,96745.94
2023-10-17T02:29:54.697Z,96726.09
2023-10-17T02:34:57.597Z,96724.13
2023-10-17T02:40:10.699Z,96749.91
2023-10-17T02:45:28.517Z,96774.97
2023-10-17T02:50:34.324Z,96794.84
2023-10-17T02:55:37.211Z,96845.72
2023-10-17T03:00:45.688Z,96874.47
2023-10-17T03:05:54.970Z,96909.34
2023-10-17T03:11:00.976Z,96900.69
2023-10-17T03:16:18.302Z,96934.50
2023-10-17T03:21:31.511Z,96934.66
2023-10-17T03:26:55.777Z,96958.47
2023-10-17T03:32:04.990Z,96982.78
2023-10-17T03:37:26.991Z,96993.41
2023-10-17T03:42:39.206Z,97020.41
2023-10-17T03:47:42.654Z,97035.56
2023-10-17T03:52:45.738Z,97037.50
2023-10-17T03:57:54.338Z,97068.31
2023-10-17T04:02:58.183Z,97064.91
2023-10-17T04:08:02.031Z,97102.34
2023-10-17T04:13:23.605Z,97098.59
2023-10-17T04:18:26.505Z,97107.81
2023-10-17T04:23:32.023Z,97129.06
2023-10-17T04:28:35.626Z,97137.50
2023-10-17T04:33:41.531Z,97148.09
2023-10-17T04:38:48.944Z,97157.84
2023-10-17T04:43:58.254Z,97166.00
2023-10-17T04:49:18.687Z,97199.59
2023-10-17T04:54:31.304Z,97199.44
2023-10-17T04:59:50.944Z,97227.97
2023-10-17T05:04:57.402Z,97268.25
2023-10-17T05:10:23.031Z,97261.88
2023-10-17T05:15:45.332Z,97296.69
2023-10-17T05:21:06.782Z,97309.53
2023-10-17T05:26:28.477Z,97335.34
2023-10-17T05:31:49.767Z,97334.69
2023-10-17T05:37:11.471Z,97348.47
2023-10-17T05:42:32.841Z,97357.00
2023-10-17T05:47:54.320Z,97375.25
2023-10-17T05:53:15.794Z,97386.28
2023-10-17T05:58:37.253Z,97416.63
2023-10-17T06:03:59.020Z,97416.72
2023-10-17T06:09:22.657Z,97431.75
2023-10-17T06:14:44.498Z,97463.69
2023-10-17T06:19:48.479Z,97468.78
2023-10-17T06:25:06.456Z,97485.78
2023-10-17T06:30:28.513Z,97511.16
2023-10-17T06:35:33.636Z,97517.69
2023-10-17T06:40:46.078Z,97505.28
2023-10-17T06:45:55.610Z,97531.81
2023-10-17T06:51:06.242Z,97559.72
2023-10-17T06:56:11.297Z,97569.22
2023-10-17T07:01:26.436Z,97577.66
2023-10-17T07:06:30.695Z,97594.00
2023-10-17T07:11:37.172Z,97623.00
2023-10-17T07:16:43.667Z,97632.34
2023-10-17T07:22:06.819Z,97676.63
2023-10-17T07:27:14.043Z,97703.97
2023-10-17T07:32:20.118Z,97737.72
2023-10-17T07:37:23.135Z,97706.81
2023-10-17T07:42:32.356Z,97753.28
2023-10-17T07:47:35.628Z,97773.84
2023-10-17T07:52:40.269Z,97756.44
2023-10-17T07:57:45.185Z,97795.41
2023-10-17T08:02:49.977Z,97805.94
2023-10-17T08:08:02.802Z,97817.91
2023-10-17T08:13:05.724Z,97842.59
2023-10-17T08:18:16.510Z,97843.09
2023-10-17T08:23:21.555Z,97853.97
2023-10-17T08:28:43.311Z,97881.75
2023-10-17T08:33:59.096Z,97895.28
2023-10-17T08:39:05.002Z,97936.84
2023-10-17T08:44:07.985Z,97935.03
2023-10-17T08:49:12.004Z,97960.16
2023-10-17T08:54:15.308Z,97963.59
2023-10-17T08:59:36.969Z,98015.88
2023-10-17T09:04:40.072Z,97993.22
2023-10-17T09:09:44.403Z,98006.38
2023-10-17T09:14:50.839Z,98023.94
2023-10-17T09:19:54.445Z,98032.16
2023-10-17T09:24:58.060Z,98028.38
2023-10-17T09:30:01.162Z,98040.53
2023-10-17T09:35:12.410Z,98062.81
2023-10-17T09:40:49.497Z,98077.66
2023-10-17T09:45:57.343Z,98072.44
2023-10-17T09:51:03.022Z,98079.53
2023-10-17T09:56:11.203Z,98101.41
2023-10-17T10:01:27.961Z,98101.69
2023-10-17T10:06:34.865Z,98125.81
2023-10-17T10:11:51.192Z,98119.28
2023-10-17T10:17:05.196Z,98131.50
2023-10-17T10:22:10.877Z,98124.06
2023-10-17T10:27:14.025Z,98160.44
2023-10-17T10:32:34.513Z,98164.59
2023-10-17T10:37:55.139Z,98184.94
2023-10-17T10:43:02.964Z,98228.75
2023-10-17T10:48:16.745Z,98228.22
2023-10-17T10:53:31.031Z,98237.50
2023-10-17T10:58:35.777Z,98237.16
2023-10-17T11:03:48.152Z,98244.22
2023-10-17T11:08:51.626Z,98231.63
2023-10-17T11:13:58.530Z,98247.34
2023-10-17T11:19:03.350Z,98256.50
2023-10-17T11:24:08.256Z,98272.09
2023-10-17T11:29:11.904Z,98277.13
2023-10-17T11:34:14.858Z,98275.78
2023-10-17T11:39:18.237Z,98269.63
2023-10-17T11:44:29.248Z,98284.81
2023-10-17T11:49:37.359Z,98286.13
2023-10-17T11:55:14.472Z,98316.88
2023-10-17T12:00:19.969Z,98311.59
2023-10-17T12:05:29.305Z,98341.66
2023-10-17T12:10:38.184Z,98343.78
2023-10-17T12:15:41.098Z,98353.59
2023-10-17T12:20:43.975Z,98348.44
2023-10-17T12:25:46.955Z,98364.09
2023-10-17T12:30:50.098Z,98363.97
2023-10-17T12:35:53.234Z,98363.44
2023-10-17T12:40:56.176Z,98375.03
2023-10-17T12:45:59.187Z,98393.22
2023-10-17T12:51:13.052Z,98394.44
2023-10-17T12:56:16.269Z,98389.59
2023-10-17T13:01:19.614Z,98420.38
2023-10-17T13:06:22.653Z,98413.81
2023-10-17T13:11:26.541Z,98421.28
2023-10-17T13:16:29.667Z,98432.84
2023-10-17T13:21:32.660Z,98434.44
2023-10-17T13:26:38.889Z,98453.94
2023-10-17T13:31:41.897Z,98458.19
2023-10-17T13:36:45.405Z,98460.50
2023-10-17T13:41:48.241Z,98474.88
2023-10-17T13:46:52.947Z,98486.84
2023-10-17T13:51:56.382Z,98490.00
2023-10-17T13:56:59.320Z,98499.66
2023-10-17T14:02:02.543Z,98506.50
2023-10-17T14:07:05.859Z,98514.06
2023-10-17T14:12:12.518Z,98521.16
2023-10-17T14:17:15.331Z,98529.66
2023-10-17T14:22:39.910Z,98536.22
2023-10-17T14:27:43.131Z,98534.00
2023-10-17T14:32:47.472Z,98544.41
2023-10-17T14:37:50.322Z,98549.31
2023-10-17T14:42:54.761Z,98563.84
2023-10-17T14:47:57.957Z,98567.34
2023-10-17T14:53:01.238Z,98567.16
2023-10-17T14:58:04.334Z,98561.84
2023-10-17T15:03:07.861Z,98561.97
2023-10-17T15:08:12.674Z,98579.22
2023-10-17T15:13:16.109Z,98581.53
2023-10-17T15:18:19.203Z,98589.97
2023-10-17T15:23:22.238Z,98595.72
2023-10-17T15:28:25.196Z,98597.34
2023-10-17T15:33:28.693Z,98606.19
2023-10-17T15:38:33.215Z,98605.47
2023-10-17T15:43:54.630Z,98614.66
2023-10-17T15:48:57.702Z,98615.47
2023-10-17T15:54:00.883Z,98623.91
2023-10-17T15:59:03.869Z,98624.75
2023-10-17T16:04:08.653Z,98626.63
2023-10-17T16:09:17.134Z,98631.25
2023-10-17T16:14:20.346Z,98630.84
2023-10-17T16:19:23.747Z,98643.09
2023-10-17T16:24:26.913Z,98642.00
2023-10-17T16:29:30.265Z,98649.25
2023-10-17T16:34:33.674Z,98664.88
2023-10-17T16:39:36.627Z,98668.72
2023-10-17T16:44:40.076Z,98668.34
2023-10-17T16:49:45.501Z,98684.72
2023-10-17T16:54:49.020Z,98687.78
2023-10-17T17:00:06.345Z,98685.50
2023-10-17T17:05:13.028Z,98689.69
2023-10-17T17:10:16.700Z,98691.97
2023-10-17T17:15:19.884Z,98699.97
2023-10-17T17:20:23.792Z,98700.72
2023-10-17T17:25:28.588Z,98708.72
2023-10-17T17:30:32.157Z,98713.69
2023-10-17T17:35:37.084Z,98733.09
2023-10-17T17:40:40.839Z,98735.34
2023-10-17T17:45:45.455Z,98750.94
2023-10-17T17:50:50.466Z,98739.13
2023-10-17T17:55:53.692Z,98753.59
2023-10-17T18:00:57.430Z,98753.94
2023-10-17T18:06:07.906Z,98757.38
2023-10-17T18:11:11.423Z,98761.19
2023-10-17T18:16:18.718Z,98766.88
2023-10-17T18:21:21.738Z,98772.59
2023-10-17T18:26:24.806Z,98765.34
2023-10-17T18:31:27.969Z,98795.41
2023-10-17T18:36:30.882Z,98779.47
2023-10-17T18:41:39.566Z,98783.63
2023-10-17T18:46:44.198Z,98791.63
2023-10-17T18:51:47.318Z,98796.91
2023-10-17T18:56:51.723Z,98778.22
2023-10-17T19:01:54.754Z,98777.44
2023-10-17T19:07:01.482Z,98788.09
2023-10-17T19:12:06.590Z,98782.34
2023-10-17T19:17:09.666Z,98781.22
2023-10-17T19:22:13.765Z,98792.59
2023-10-17T19:27:17.701Z,98799.06
2023-10-17T19:32:20.589Z,98798.69
2023-10-17T19:37:23.678Z,98805.53
2023-10-17T19:42:26.962Z,98807.47
2023-10-17T19:47:30.133Z,98799.91
2023-10-17T19:52:35.271Z,98803.69
2023-10-17T19:57:38.351Z,98813.22
2023-10-17T20:02:41.316Z,98817.00
2023-10-17T20:07:46.089Z,98802.91
2023-10-17T20:12:49.832Z,98802.53
2023-10-17T20:17:52.920Z,98807.06
2023-10-17T20:22:56.371Z,98799.44
2023-10-17T20:28:01.033Z,98809.38
2023-10-17T20:33:05.659Z,98807.81
2023-10-17T20:38:11.667Z,98813.16
2023-10-17T20:43:14.989Z,98823.81
2023-10-17T20:48:17.823Z,98813.50
2023-10-17T20:53:20.792Z,98812.03
2023-10-17T20:58:23.808Z,98810.03
2023-10-17T21:03:28.460Z,98808.06
2023-10-17T21:08:32.072Z,98796.25
2023-10-17T21:13:35.676Z,98800.81
2023-10-17T21:18:38.774Z,98803.06
2023-10-17T21:23:41.896Z,98806.84
2023-10-17T21:28:44.824Z,98786.31
2023-10-17T21:33:48.020Z,98795.81
2023-10-17T21:38:53.405Z,98793.53
2023-10-17T21:43:56.345Z,98807.16
2023-10-17T21:48:59.189Z,98792.03
2023-10-17T21:54:02.315Z,98796.63
2023-10-17T21:59:06.586Z,98797.38
2023-10-17T22:04:10.163Z,98798.16
2023-10-17T22:09:13.839Z,98786.34
2023-10-17T22:14:17.978Z,98780.66
2023-10-17T22:19:21.174Z,98801.31
2023-10-17T22:24:24.424Z,98798.63
2023-10-17T22:29:29.518Z,98800.53
2023-10-17T22:34:32.528Z,98814.72
2023-10-17T22:39:36.758Z,98814.34
2023-10-17T22:44:40.966Z,98816.59
2023-10-17T22:49:45.882Z,98820.44
2023-10-17T22:54:49.033Z,98833.41
2023-10-17T22:59:52.056Z,98823.13
2023-10-17T23:04:58.851Z,98823.91
2023-10-17T23:10:02.424Z,98819.69
2023-10-17T23:15:12.140Z,98823.53
2023-10-17T23:20:16.677Z,98825.41
2023-10-17T23:25:19.618Z,98821.25
2023-10-17T23:30:25.031Z,98822.00
2023-10-17T23:35:29.296Z,98824.25
2023-10-17T23:40:34.197Z,98830.34
2023-10-17T23:45:37.195Z,98823.53
2023-10-17T23:50:40.093Z,98817.38
2023-10-17T23:55:43.042Z,98821.19
